createdAt,value
2022-07-31T00:00:11.819Z,46.22
2022-07-31T00:02:40.729Z,46.21
2022-07-31T00:05:07.193Z,45.89
2022-07-31T00:07:33.552Z,46.23
2022-07-31T00:09:59.935Z,46.07
2022-07-31T00:12:26.290Z,45.99
2022-07-31T00:14:52.678Z,45.90
2022-07-31T00:17:19.029Z,46.22
2022-07-31T00:19:45.394Z,46.18
2022-07-31T00:22:12.522Z,46.17
2022-07-31T00:24:39.001Z,46.14
2022-07-31T00:27:05.821Z,46.19
2022-07-31T00:29:32.573Z,46.00
2022-07-31T00:31:58.965Z,46.03
2022-07-31T00:34:25.347Z,46.01
2022-07-31T00:36:51.715Z,45.87
2022-07-31T00:39:18.075Z,46.08
2022-07-31T00:41:45.035Z,45.99
2022-07-31T00:44:12.386Z,46.02
2022-07-31T00:46:39.091Z,46.40
2022-07-31T00:49:12.707Z,46.20
2022-07-31T00:51:39.374Z,46.30
2022-07-31T00:54:08.840Z,46.49
2022-07-31T00:56:35.390Z,46.33
2022-07-31T00:59:01.791Z,46.03
2022-07-31T01:01:28.659Z,46.38
2022-07-31T01:03:55.065Z,46.29
2022-07-31T01:06:21.415Z,46.30
2022-07-31T01:08:47.806Z,45.97
2022-07-31T01:11:16.038Z,46.07
2022-07-31T01:13:45.585Z,45.94
2022-07-31T01:16:12.163Z,46.09
2022-07-31T01:18:38.546Z,45.92
2022-07-31T01:21:06.402Z,45.98
2022-07-31T01:23:41.595Z,46.09
2022-07-31T01:26:37.468Z,46.11
2022-07-31T01:29:06.701Z,46.12
2022-07-31T01:31:37.123Z,46.10
2022-07-31T01:34:12.827Z,45.83
2022-07-31T01:36:39.911Z,45.75
2022-07-31T01:39:06.416Z,45.94
2022-07-31T01:41:38.274Z,45.60
2022-07-31T01:44:05.413Z,45.70
2022-07-31T01:46:31.805Z,45.74
2022-07-31T01:49:04.064Z,45.82
2022-07-31T01:51:30.891Z,46.01
2022-07-31T01:53:57.327Z,46.07
2022-07-31T01:56:23.871Z,45.98
2022-07-31T01:58:50.244Z,46.10
2022-07-31T02:01:30.247Z,46.02
2022-07-31T02:04:00.570Z,46.05
2022-07-31T02:06:27.768Z,45.95
2022-07-31T02:08:54.265Z,46.02
2022-07-31T02:11:21.719Z,45.84
2022-07-31T02:13:48.804Z,46.17
2022-07-31T02:16:15.393Z,46.18
2022-07-31T02:18:41.963Z,46.09
2022-07-31T02:21:19.084Z,46.02
2022-07-31T02:23:45.516Z,46.15
2022-07-31T02:26:12.765Z,46.36
2022-07-31T02:28:40.644Z,46.25
2022-07-31T02:31:07.072Z,46.30
2022-07-31T02:33:33.666Z,46.32
2022-07-31T02:36:00.369Z,46.26
2022-07-31T02:38:26.882Z,46.35
2022-07-31T02:40:56.703Z,46.17
2022-07-31T02:43:23.797Z,46.23
2022-07-31T02:45:50.217Z,46.10
2022-07-31T02:48:16.610Z,46.32
2022-07-31T02:50:47.330Z,46.29
2022-07-31T02:53:13.744Z,45.99
2022-07-31T02:55:40.138Z,46.11
2022-07-31T02:58:06.761Z,46.20
2022-07-31T03:00:33.722Z,46.33
2022-07-31T03:03:00.445Z,46.30
2022-07-31T03:05:27.021Z,46.19
2022-07-31T03:07:53.388Z,46.37
2022-07-31T03:10:19.808Z,46.37
2022-07-31T03:13:02.300Z,46.40
2022-07-31T03:15:28.952Z,46.33
2022-07-31T03:17:55.472Z,46.46
2022-07-31T03:20:31.948Z,46.36
2022-07-31T03:23:00.273Z,46.44
2022-07-31T03:25:26.703Z,46.44
2022-07-31T03:27:56.179Z,46.63
2022-07-31T03:30:26.172Z,46.38
2022-07-31T03:32:55.091Z,46.52
2022-07-31T03:35:21.681Z,46.32
2022-07-31T03:37:48.201Z,46.20
2022-07-31T03:40:14.673Z,46.26
2022-07-31T03:42:41.059Z,46.32
2022-07-31T03:45:07.470Z,46.30
2022-07-31T03:47:33.927Z,46.04
2022-07-31T03:50:00.366Z,46.04
2022-07-31T03:52:26.760Z,46.20
2022-07-31T03:54:53.209Z,46.08
2022-07-31T03:57:20.845Z,46.17
2022-07-31T03:59:54.418Z,46.10
2022-07-31T04:02:21.044Z,46.19
2022-07-31T04:04:50.172Z,46.36
2022-07-31T04:07:17.098Z,46.49
2022-07-31T04:09:43.595Z,46.26
2022-07-31T04:12:11.573Z,46.06
2022-07-31T04:14:37.940Z,46.27
2022-07-31T04:17:04.302Z,46.44
2022-07-31T04:19:31.100Z,46.61
2022-07-31T04:21:58.054Z,46.21
2022-07-31T04:24:24.414Z,46.47
2022-07-31T04:27:12.253Z,46.57
2022-07-31T04:29:43.205Z,46.50
2022-07-31T04:32:09.557Z,46.68
2022-07-31T04:34:42.667Z,46.50
2022-07-31T04:37:09.071Z,46.84
2022-07-31T04:39:35.486Z,46.53
2022-07-31T04:42:02.270Z,46.69
2022-07-31T04:44:31.118Z,47.06
2022-07-31T04:47:00.668Z,46.76
2022-07-31T04:49:28.007Z,47.20
2022-07-31T04:51:54.483Z,47.02
2022-07-31T04:54:20.904Z,47.10
2022-07-31T04:56:48.446Z,47.29
2022-07-31T04:59:15.773Z,47.25
2022-07-31T05:01:45.422Z,47.40
2022-07-31T05:04:13.962Z,47.77
2022-07-31T05:06:41.477Z,47.69
2022-07-31T05:09:11.574Z,47.79
2022-07-31T05:11:42.485Z,48.10
2022-07-31T05:14:09.341Z,48.10
2022-07-31T05:16:35.757Z,48.51
2022-07-31T05:19:02.131Z,48.28
2022-07-31T05:22:06.816Z,48.70
2022-07-31T05:24:52.222Z,48.44
2022-07-31T05:27:18.616Z,48.78
2022-07-31T05:29:45.891Z,48.71
2022-07-31T05:32:12.651Z,49.03
2022-07-31T05:34:39.413Z,49.03
2022-07-31T05:37:05.944Z,48.91
2022-07-31T05:39:35.444Z,49.18
2022-07-31T05:42:20.432Z,49.26
2022-07-31T05:45:07.092Z,49.08
2022-07-31T05:47:40.062Z,49.29
2022-07-31T05:50:08.458Z,49.58
2022-07-31T05:52:34.861Z,49.67
2022-07-31T05:55:12.323Z,49.71
2022-07-31T05:58:04.896Z,49.38
2022-07-31T06:00:31.443Z,49.38
2022-07-31T06:02:59.995Z,49.48
2022-07-31T06:05:46.363Z,49.63
2022-07-31T06:08:12.778Z,49.31
2022-07-31T06:10:42.900Z,49.45
2022-07-31T06:13:09.274Z,49.67
2022-07-31T06:15:36.750Z,49.50
2022-07-31T06:18:04.005Z,49.69
2022-07-31T06:20:31.095Z,49.70
2022-07-31T06:22:57.521Z,49.99
2022-07-31T06:25:31.813Z,50.06
2022-07-31T06:28:00.013Z,49.86
2022-07-31T06:30:27.771Z,49.99
2022-07-31T06:32:54.683Z,49.98
2022-07-31T06:35:21.185Z,49.97
2022-07-31T06:38:10.435Z,50.31
2022-07-31T06:40:56.826Z,50.44
2022-07-31T06:43:33.195Z,50.76
2022-07-31T06:46:25.160Z,51.11
2022-07-31T06:49:10.400Z,51.75
2022-07-31T06:51:37.504Z,51.48
2022-07-31T06:54:04.442Z,52.01
2022-07-31T06:56:30.844Z,52.40
2022-07-31T06:58:57.191Z,53.47
2022-07-31T07:01:23.667Z,53.87
2022-07-31T07:03:50.083Z,56.57
2022-07-31T07:06:16.546Z,56.90
2022-07-31T07:08:42.926Z,56.60
2022-07-31T07:11:12.473Z,56.75
2022-07-31T07:13:45.250Z,58.39
2022-07-31T07:16:14.754Z,57.00
2022-07-31T07:18:41.161Z,57.17
2022-07-31T07:21:07.552Z,59.12
2022-07-31T07:23:35.357Z,57.29
2022-07-31T07:26:27.737Z,56.64
2022-07-31T07:28:54.187Z,55.90
2022-07-31T07:31:20.621Z,55.52
2022-07-31T07:33:47.810Z,55.11
2022-07-31T07:36:24.126Z,55.07
2022-07-31T07:39:00.322Z,54.72
2022-07-31T07:41:28.405Z,54.59
2022-07-31T07:43:54.878Z,54.28
2022-07-31T07:46:25.216Z,54.08
2022-07-31T07:48:55.791Z,54.00
2022-07-31T07:51:34.707Z,53.59
2022-07-31T07:54:23.927Z,53.34
2022-07-31T07:57:09.388Z,53.48
2022-07-31T07:59:54.496Z,53.62
2022-07-31T08:02:39.258Z,53.24
2022-07-31T08:05:07.266Z,53.34
2022-07-31T08:07:41.840Z,52.91
2022-07-31T08:10:29.208Z,53.17
2022-07-31T08:13:05.117Z,53.08
2022-07-31T08:15:51.469Z,52.72
2022-07-31T08:18:27.809Z,53.69
2022-07-31T08:20:55.141Z,53.69
2022-07-31T08:23:21.693Z,54.18
2022-07-31T08:25:48.079Z,53.85
2022-07-31T08:28:19.649Z,53.58
2022-07-31T08:30:50.823Z,53.92
2022-07-31T08:33:19.160Z,53.67
2022-07-31T08:35:53.087Z,54.19
2022-07-31T08:38:20.113Z,54.04
2022-07-31T08:41:02.233Z,54.06
2022-07-31T08:44:02.806Z,53.58
2022-07-31T08:46:16.623Z,53.31
2022-07-31T08:48:44.564Z,53.34
2022-07-31T08:51:11.159Z,52.77
2022-07-31T08:53:57.495Z,52.79
2022-07-31T08:56:25.697Z,52.75
2022-07-31T08:58:52.079Z,52.75
2022-07-31T09:01:20.751Z,52.61
2022-07-31T09:03:47.157Z,52.60
2022-07-31T09:06:15.127Z,52.97
2022-07-31T09:08:41.689Z,52.70
2022-07-31T09:11:10.173Z,52.28
2022-07-31T09:13:40.195Z,52.91
2022-07-31T09:16:30.548Z,52.91
2022-07-31T09:18:58.243Z,52.81
2022-07-31T09:21:24.660Z,52.29
2022-07-31T09:23:51.067Z,53.12
2022-07-31T09:26:17.438Z,53.17
2022-07-31T09:28:44.506Z,53.06
2022-07-31T09:31:11.326Z,53.11
2022-07-31T09:33:58.189Z,52.79
2022-07-31T09:36:33.529Z,52.78
2022-07-31T09:39:14.278Z,53.11
2022-07-31T09:42:38.374Z,52.49
2022-07-31T09:45:19.311Z,52.58
2022-07-31T09:47:45.948Z,53.03
2022-07-31T09:50:12.433Z,52.26
2022-07-31T09:52:39.111Z,52.76
2022-07-31T09:55:15.481Z,52.80
2022-07-31T09:57:53.684Z,53.00
2022-07-31T10:00:20.864Z,52.83
2022-07-31T10:02:47.307Z,52.61
2022-07-31T10:05:14.212Z,52.46
2022-07-31T10:07:40.584Z,52.49
2022-07-31T10:10:12.188Z,52.61
2022-07-31T10:12:45.303Z,52.28
2022-07-31T10:15:12.205Z,52.50
2022-07-31T10:17:42.521Z,52.40
2022-07-31T10:20:28.123Z,52.50
2022-07-31T10:23:19.307Z,52.72
2022-07-31T10:25:57.606Z,52.45
2022-07-31T10:28:24.211Z,52.58
2022-07-31T10:30:50.631Z,52.68
2022-07-31T10:33:42.452Z,52.52
2022-07-31T10:36:34.407Z,52.49
2022-07-31T10:39:31.328Z,52.27
2022-07-31T10:42:31.856Z,52.09
2022-07-31T10:45:03.988Z,52.21
2022-07-31T10:47:39.551Z,51.91
2022-07-31T10:50:37.819Z,51.94
2022-07-31T10:53:11.314Z,52.09
2022-07-31T10:56:02.978Z,51.87
2022-07-31T10:58:55.996Z,51.77
2022-07-31T11:01:52.884Z,51.73
2022-07-31T11:04:40.117Z,51.54
2022-07-31T11:07:25.566Z,51.72
2022-07-31T11:10:17.131Z,51.93
2022-07-31T11:13:04.407Z,51.86
2022-07-31T11:15:49.546Z,51.56
2022-07-31T11:18:41.525Z,51.48
2022-07-31T11:21:35.839Z,51.78
2022-07-31T11:24:02.268Z,51.53
2022-07-31T11:26:33.435Z,51.34
2022-07-31T11:30:01.810Z,51.51
2022-07-31T11:31:54.863Z,51.25
2022-07-31T11:34:21.285Z,51.51
2022-07-31T11:36:51.185Z,51.53
2022-07-31T11:39:18.091Z,51.14
2022-07-31T11:41:45.758Z,51.11
2022-07-31T11:44:12.175Z,51.12
2022-07-31T11:46:38.556Z,51.48
2022-07-31T11:49:05.248Z,51.06
2022-07-31T11:51:31.692Z,51.42
2022-07-31T11:53:58.142Z,51.16
2022-07-31T11:56:25.266Z,51.37
2022-07-31T11:58:52.065Z,51.36
2022-07-31T12:01:18.476Z,51.05
2022-07-31T12:03:45.033Z,51.10
2022-07-31T12:06:11.377Z,51.17
2022-07-31T12:08:37.822Z,51.02
2022-07-31T12:11:04.677Z,51.02
2022-07-31T12:13:32.229Z,51.07
2022-07-31T12:15:58.506Z,51.38
2022-07-31T12:18:26.426Z,50.94
2022-07-31T12:20:53.842Z,51.14
2022-07-31T12:23:41.207Z,50.96
2022-07-31T12:26:06.577Z,50.88
2022-07-31T12:28:32.931Z,51.09
2022-07-31T12:30:59.439Z,51.02
2022-07-31T12:33:27.448Z,51.18
2022-07-31T12:35:57.018Z,50.92
2022-07-31T12:38:40.754Z,50.84
2022-07-31T12:41:07.725Z,51.11
2022-07-31T12:43:35.920Z,50.93
2022-07-31T12:46:05.205Z,51.15
2022-07-31T12:48:40.142Z,51.04
2022-07-31T12:51:08.537Z,50.75
2022-07-31T12:53:34.889Z,51.07
2022-07-31T12:56:01.269Z,51.06
2022-07-31T12:58:27.615Z,50.91
2022-07-31T13:00:56.130Z,51.07
2022-07-31T13:03:22.483Z,50.99
2022-07-31T13:05:52.024Z,50.95
2022-07-31T13:08:18.646Z,50.79
2022-07-31T13:10:46.093Z,51.14
2022-07-31T13:13:12.453Z,51.23
2022-07-31T13:15:38.848Z,51.26
2022-07-31T13:18:05.241Z,51.22
2022-07-31T13:20:31.588Z,50.99
2022-07-31T13:22:59.259Z,51.32
2022-07-31T13:25:26.511Z,51.48
2022-07-31T13:27:52.928Z,51.51
2022-07-31T13:30:19.305Z,51.64
2022-07-31T13:32:45.653Z,51.51
2022-07-31T13:35:26.589Z,51.42
2022-07-31T13:37:54.607Z,51.19
2022-07-31T13:40:40.926Z,51.11
2022-07-31T13:43:07.288Z,50.90
2022-07-31T13:45:33.639Z,50.60
2022-07-31T13:48:01.625Z,50.29
2022-07-31T13:50:29.672Z,50.65
2022-07-31T13:52:58.608Z,50.52
2022-07-31T13:55:25.334Z,50.55
2022-07-31T13:57:51.878Z,50.45
2022-07-31T14:00:21.728Z,50.49
2022-07-31T14:02:49.985Z,50.65
2022-07-31T14:05:16.456Z,50.70
2022-07-31T14:07:48.261Z,50.81
2022-07-31T14:10:20.571Z,51.02
2022-07-31T14:12:47.476Z,50.69
2022-07-31T14:15:13.832Z,51.01
2022-07-31T14:17:40.200Z,51.09
2022-07-31T14:20:06.697Z,51.28
2022-07-31T14:22:33.084Z,51.20
2022-07-31T14:24:59.469Z,51.19
2022-07-31T14:27:25.861Z,51.31
2022-07-31T14:29:52.232Z,51.41
2022-07-31T14:32:19.339Z,51.30
2022-07-31T14:34:45.907Z,51.18
2022-07-31T14:37:12.268Z,51.33
2022-07-31T14:39:41.354Z,51.33
2022-07-31T14:42:09.440Z,51.37
2022-07-31T14:44:36.840Z,51.31
2022-07-31T14:47:03.416Z,51.31
2022-07-31T14:50:07.138Z,51.31
2022-07-31T14:52:17.279Z,51.35
2022-07-31T14:54:43.639Z,51.26
2022-07-31T14:57:10.004Z,51.26
2022-07-31T14:59:36.362Z,51.29
2022-07-31T15:02:02.717Z,51.41
2022-07-31T15:04:29.069Z,51.38
2022-07-31T15:07:07.711Z,51.20
2022-07-31T15:09:39.293Z,51.30
2022-07-31T15:12:05.783Z,51.33
2022-07-31T15:14:32.152Z,51.35
2022-07-31T15:16:58.530Z,51.43
2022-07-31T15:19:24.910Z,51.18
2022-07-31T15:22:10.283Z,51.15
2022-07-31T15:24:39.228Z,51.52
2022-07-31T15:27:08.815Z,51.26
2022-07-31T15:30:00.693Z,51.69
2022-07-31T15:32:21.550Z,51.58
2022-07-31T15:34:47.912Z,51.69
2022-07-31T15:37:20.210Z,51.88
2022-07-31T15:40:02.218Z,51.73
2022-07-31T15:42:30.197Z,51.97
2022-07-31T15:44:56.562Z,51.97
2022-07-31T15:47:22.931Z,51.88
2022-07-31T15:49:49.341Z,52.07
2022-07-31T15:52:18.990Z,52.13
2022-07-31T15:54:45.894Z,51.76
2022-07-31T15:57:12.269Z,51.95
2022-07-31T15:59:38.620Z,51.77
2022-07-31T16:02:06.136Z,51.61
2022-07-31T16:04:32.521Z,51.90
2022-07-31T16:07:00.234Z,51.93
2022-07-31T16:10:03.986Z,51.56
2022-07-31T16:12:33.788Z,51.48
2022-07-31T16:15:00.190Z,51.78
2022-07-31T16:17:37.678Z,51.48
2022-07-31T16:20:08.612Z,51.60
2022-07-31T16:22:35.646Z,51.58
2022-07-31T16:25:01.994Z,51.58
2022-07-31T16:27:28.358Z,51.54
2022-07-31T16:29:59.694Z,51.54
2022-07-31T16:32:28.571Z,51.40
2022-07-31T16:34:59.785Z,51.29
2022-07-31T16:37:49.906Z,51.51
2022-07-31T16:40:28.533Z,51.67
2022-07-31T16:42:57.804Z,51.66
2022-07-31T16:45:24.167Z,51.60
2022-07-31T16:47:50.952Z,51.32
2022-07-31T16:50:18.072Z,51.62
2022-07-31T16:52:44.440Z,51.49
2022-07-31T16:55:10.824Z,51.62
2022-07-31T16:57:37.195Z,51.49
2022-07-31T17:00:04.206Z,51.48
2022-07-31T17:02:30.615Z,51.54
2022-07-31T17:04:56.990Z,51.28
2022-07-31T17:07:23.625Z,51.54
2022-07-31T17:09:50.038Z,51.35
2022-07-31T17:12:17.657Z,51.41
2022-07-31T17:14:44.028Z,51.58
2022-07-31T17:17:11.432Z,51.40
2022-07-31T17:19:45.927Z,51.59
2022-07-31T17:22:16.140Z,51.43
2022-07-31T17:24:50.048Z,51.61
2022-07-31T17:27:16.411Z,51.61
2022-07-31T17:29:42.875Z,51.38
2022-07-31T17:32:11.293Z,51.30
2022-07-31T17:34:37.945Z,51.49
2022-07-31T17:37:04.784Z,51.85
2022-07-31T17:39:31.429Z,52.06
2022-07-31T17:41:58.045Z,52.07
2022-07-31T17:44:24.434Z,52.04
2022-07-31T17:46:52.022Z,51.97
2022-07-31T17:49:20.532Z,52.28
2022-07-31T17:51:59.195Z,52.28
2022-07-31T17:54:26.558Z,52.51
2022-07-31T17:56:53.967Z,52.48
2022-07-31T17:59:20.376Z,52.63
2022-07-31T18:02:02.116Z,52.77
2022-07-31T18:04:29.609Z,52.85
2022-07-31T18:06:56.326Z,52.76
2022-07-31T18:09:23.335Z,52.67
2022-07-31T18:11:50.105Z,52.49
2022-07-31T18:14:16.498Z,52.67
2022-07-31T18:16:44.705Z,52.57
2022-07-31T18:19:11.115Z,52.52
2022-07-31T18:21:37.461Z,52.45
2022-07-31T18:24:05.478Z,52.09
2022-07-31T18:26:31.944Z,52.42
2022-07-31T18:28:58.303Z,52.40
2022-07-31T18:31:34.671Z,52.30
2022-07-31T18:34:02.210Z,52.29
2022-07-31T18:36:28.567Z,52.27
2022-07-31T18:38:54.967Z,52.16
2022-07-31T18:41:21.337Z,52.16
2022-07-31T18:43:47.715Z,52.17
2022-07-31T18:46:14.073Z,51.92
2022-07-31T18:48:40.432Z,51.90
2022-07-31T18:51:08.173Z,52.00
2022-07-31T18:53:34.593Z,51.70
2022-07-31T18:56:00.973Z,51.97
2022-07-31T18:58:27.326Z,51.89
2022-07-31T19:00:55.214Z,51.99
2022-07-31T19:03:21.831Z,51.84
2022-07-31T19:05:50.016Z,51.75
2022-07-31T19:08:16.381Z,51.87
2022-07-31T19:10:42.746Z,51.84
2022-07-31T19:13:09.106Z,51.77
2022-07-31T19:15:45.620Z,51.72
2022-07-31T19:18:12.022Z,51.50
2022-07-31T19:20:59.905Z,51.80
2022-07-31T19:23:26.788Z,51.66
2022-07-31T19:26:03.073Z,51.49
2022-07-31T19:28:30.954Z,51.73
2022-07-31T19:30:57.307Z,51.52
2022-07-31T19:33:23.667Z,51.45
2022-07-31T19:35:56.857Z,51.52
2022-07-31T19:38:26.990Z,52.01
2022-07-31T19:40:53.353Z,52.04
2022-07-31T19:43:20.137Z,52.72
2022-07-31T19:46:09.914Z,53.02
2022-07-31T19:48:33.338Z,52.68
2022-07-31T19:50:59.756Z,52.58
2022-07-31T19:53:26.407Z,52.66
2022-07-31T19:55:55.742Z,52.76
2022-07-31T19:58:22.158Z,52.69
2022-07-31T20:00:48.542Z,52.69
2022-07-31T20:03:14.952Z,52.72
2022-07-31T20:05:41.357Z,52.77
2022-07-31T20:08:07.711Z,52.95
2022-07-31T20:10:34.087Z,53.09
2022-07-31T20:13:00.547Z,53.23
2022-07-31T20:15:26.925Z,52.89
2022-07-31T20:18:13.301Z,52.87
2022-07-31T20:20:57.429Z,53.08
2022-07-31T20:23:24.136Z,52.48
2022-07-31T20:25:50.515Z,52.45
2022-07-31T20:28:16.902Z,52.63
2022-07-31T20:30:43.278Z,52.69
2022-07-31T20:33:11.293Z,52.93
2022-07-31T20:35:48.824Z,52.94
2022-07-31T20:38:17.262Z,53.03
2022-07-31T20:40:52.781Z,52.98
2022-07-31T20:43:24.595Z,53.16
2022-07-31T20:45:51.384Z,52.86
2022-07-31T20:48:17.872Z,53.24
2022-07-31T20:50:44.313Z,53.37
2022-07-31T20:53:14.730Z,53.33
2022-07-31T20:55:41.101Z,53.89
2022-07-31T20:58:07.717Z,53.62
2022-07-31T21:00:38.263Z,53.25
2022-07-31T21:03:05.694Z,53.13
2022-07-31T21:05:32.082Z,53.36
2022-07-31T21:07:58.448Z,53.22
2022-07-31T21:10:28.182Z,53.30
2022-07-31T21:12:55.835Z,53.49
2022-07-31T21:15:41.036Z,53.33
2022-07-31T21:18:08.592Z,53.36
2022-07-31T21:20:49.690Z,53.37
2022-07-31T21:23:19.409Z,52.98
2022-07-31T21:25:45.833Z,52.98
2022-07-31T21:28:12.178Z,53.26
2022-07-31T21:30:38.622Z,53.01
2022-07-31T21:33:08.013Z,53.19
2022-07-31T21:35:36.423Z,53.21
2022-07-31T21:38:04.237Z,53.14
2022-07-31T21:40:30.944Z,53.18
2022-07-31T21:42:57.503Z,53.10
2022-07-31T21:45:25.838Z,53.25
2022-07-31T21:47:57.193Z,53.01
2022-07-31T21:50:28.815Z,53.06
2022-07-31T21:52:55.769Z,53.03
2022-07-31T21:55:22.125Z,53.06
2022-07-31T21:57:59.344Z,52.97
2022-07-31T22:00:26.405Z,53.13
2022-07-31T22:02:55.520Z,53.06
2022-07-31T22:05:40.769Z,52.95
2022-07-31T22:08:07.203Z,52.84
2022-07-31T22:10:33.598Z,52.79
2022-07-31T22:12:59.947Z,52.75
2022-07-31T22:15:26.321Z,52.66
2022-07-31T22:18:12.694Z,52.49
2022-07-31T22:20:39.201Z,52.56
2022-07-31T22:23:05.550Z,52.48
2022-07-31T22:25:31.924Z,52.19
2022-07-31T22:27:58.314Z,52.33
2022-07-31T22:30:25.678Z,52.27
2022-07-31T22:32:53.505Z,51.98
2022-07-31T22:35:20.028Z,52.33
2022-07-31T22:37:49.155Z,52.10
2022-07-31T22:40:16.117Z,52.23
2022-07-31T22:42:42.565Z,52.08
2022-07-31T22:45:22.687Z,51.85
2022-07-31T22:47:49.071Z,51.95
2022-07-31T22:50:15.471Z,52.22
2022-07-31T22:52:41.939Z,52.07
2022-07-31T22:55:08.618Z,52.02
2022-07-31T22:57:34.984Z,51.76
2022-07-31T23:00:01.586Z,51.97
2022-07-31T23:02:28.005Z,52.02
2022-07-31T23:04:54.929Z,51.77
2022-07-31T23:07:21.284Z,51.92
2022-07-31T23:09:47.655Z,51.65
2022-07-31T23:12:14.035Z,51.74
2022-07-31T23:14:40.420Z,51.65
2022-07-31T23:17:06.783Z,51.95
2022-07-31T23:19:33.146Z,51.92
2022-07-31T23:21:59.515Z,51.97
2022-07-31T23:24:25.902Z,51.99
2022-07-31T23:26:52.497Z,51.91
2022-07-31T23:29:18.871Z,51.95
2022-07-31T23:31:45.228Z,52.48
2022-07-31T23:34:11.605Z,52.51
2022-07-31T23:36:37.985Z,52.61
2022-07-31T23:39:04.350Z,52.36
2022-07-31T23:41:49.250Z,52.39
2022-07-31T23:44:18.605Z,52.49
2022-07-31T23:46:51.396Z,52.39
2022-07-31T23:49:17.790Z,52.76
2022-07-31T23:51:44.206Z,52.81
2022-07-31T23:54:10.571Z,53.15
2022-07-31T23:56:36.960Z,53.16
2022-07-31T23:59:03.331Z,52.87
